Time,TemperatureF,DewpointF,PressureIn,WindDirection,WindDirectionDegrees,WindSpeedMPH,WindSpeedGustMPH,Humidity,HourlyPrecipIn,Conditions,Clouds,dailyrainin,SoftwareType,DateUTC
2013-11-27 00:04:00,16.0,6.7,30.18,NNW,338,8.3,8.3,66,0.00,,,0.00,WUHU21623XXSP,2013-11-27 06:04:00,
2013-11-27 01:04:00,14.7,6.1,30.18,NW,315,16.1,16.1,68,0.00,,,0.00,WUHU21623XXSP,2013-11-27 07:04:00,
2013-11-27 02:04:00,13.8,5.9,30.18,NNW,338,11.4,11.4,70,0.00,,,0.00,WUHU21623XXSP,2013-11-27 08:04:00,
2013-11-27 03:04:00,12.9,5.6,30.19,NNW,338,10.1,10.1,72,0.00,,,0.00,WUHU21623XXSP,2013-11-27 09:04:00,
2013-11-27 04:04:00,12.6,5.3,30.20,NW,315,12.8,12.8,72,0.00,,,0.00,WUHU21623XXSP,2013-11-27 10:04:00,
2013-11-27 05:04:00,12.2,4.9,30.21,NNW,338,14.8,14.8,72,0.00,,,0.00,WUHU21623XXSP,2013-11-27 11:04:00,
2013-11-27 06:04:00,11.8,4.6,30.22,North,0,18.6,18.6,72,0.00,,,0.00,WUHU21623XXSP,2013-11-27 12:04:00,
2013-11-27 06:07:00,11.8,4.6,30.22,North,0,18.6,18.6,72,0.00,,,0.00,WUHU21623XXSP,2013-11-27 12:07:00,
2013-11-27 06:12:00,11.8,4.5,30.23,NNW,336,14.0,18.6,72,0.00,,,0.00,WUHU21623XXSP,2013-11-27 12:12:00,
2013-11-27 06:17:00,11.8,4.5,30.23,NNW,331,13.5,17.7,72,0.00,,,0.00,WUHU21623XXSP,2013-11-27 12:17:00,
2013-11-27 06:22:00,11.8,4.5,30.24,NNW,333,12.2,17.2,72,0.00,,,0.00,WUHU21623XXSP,2013-11-27 12:22:00,
2013-11-27 06:27:00,11.5,4.1,30.24,NNW,329,10.8,15.7,72,0.00,,,0.00,WUHU21623XXSP,2013-11-27 12:27:00,
2013-11-27 06:32:00,11.5,4.1,30.24,NNW,331,10.6,16.1,72,0.00,,,0.00,WUHU21623XXSP,2013-11-27 12:32:00,
2013-11-27 06:37:00,11.5,4.1,30.24,NNW,328,11.7,16.3,72,0.00,,,0.00,WUHU21623XXSP,2013-11-27 12:37:00,
2013-11-27 06:42:00,11.5,4.1,30.24,NNW,336,11.6,15.7,72,0.00,,,0.00,WUHU21623XXSP,2013-11-27 12:42:00,
2013-11-27 06:47:00,11.3,4.0,30.24,NNW,331,11.8,15.2,72,0.00,,,0.00,WUHU21623XXSP,2013-11-27 12:47:00,
2013-11-27 06:52:00,11.3,4.2,30.24,NNW,337,12.8,19.5,73,0.00,,,0.00,WUHU21623XXSP,2013-11-27 12:52:00,
2013-11-27 06:57:00,11.3,4.2,30.24,NNW,334,12.0,15.2,73,0.00,,,0.00,WUHU21623XXSP,2013-11-27 12:57:00,
2013-11-27 07:02:00,11.3,4.2,30.24,NNW,340,11.5,17.0,73,0.00,,,0.00,WUHU21623XXSP,2013-11-27 13:02:00,
2013-11-27 07:04:00,11.3,4.4,30.24,NW,315,14.1,14.1,73,0.00,,,0.00,WUHU21623XXSP,2013-11-27 13:04:00,
2013-11-27 07:07:00,11.3,4.2,30.24,NNW,332,13.0,19.5,73,0.00,,,0.00,WUHU21623XXSP,2013-11-27 13:07:00,
2013-11-27 07:13:00,11.3,4.2,30.24,NNW,329,11.8,18.6,73,0.00,,,0.00,WUHU21623XXSP,2013-11-27 13:13:00,
2013-11-27 07:18:00,11.5,4.4,30.25,NNW,338,12.0,17.0,73,0.00,,,0.00,WUHU21623XXSP,2013-11-27 13:18:00,
2013-11-27 07:23:00,11.7,4.6,30.25,NNW,335,13.7,22.4,73,0.00,,,0.00,WUHU21623XXSP,2013-11-27 13:23:00,
2013-11-27 07:28:00,11.8,4.8,30.25,NNW,335,11.8,17.4,73,0.00,,,0.00,WUHU21623XXSP,2013-11-27 13:28:00,
2013-11-27 07:33:00,11.8,4.8,30.25,NNW,335,11.4,16.6,73,0.00,,,0.00,WUHU21623XXSP,2013-11-27 13:33:00,
2013-11-27 07:38:00,12.0,5.0,30.25,NNW,335,12.8,19.0,73,0.00,,,0.00,WUHU21623XXSP,2013-11-27 13:38:00,
2013-11-27 07:43:00,12.2,5.1,30.26,NNW,332,11.3,16.3,73,0.00,,,0.00,WUHU21623XXSP,2013-11-27 13:43:00,
2013-11-27 07:48:00,12.4,5.3,30.25,NNW,335,12.6,18.1,73,0.00,,,0.00,WUHU21623XXSP,2013-11-27 13:48:00,
2013-11-27 07:53:00,12.6,5.5,30.26,NNW,331,13.8,20.1,73,0.00,,,0.00,WUHU21623XXSP,2013-11-27 13:53:00,
2013-11-27 07:58:00,12.7,5.7,30.26,NNW,332,12.8,19.5,73,0.00,,,0.00,WUHU21623XXSP,2013-11-27 13:58:00,
2013-11-27 08:03:00,12.9,5.6,30.26,NNW,333,12.9,21.7,72,0.00,,,0.00,WUHU21623XXSP,2013-11-27 14:03:00,
2013-11-27 08:04:00,13.1,6.1,30.26,NNW,338,18.8,18.8,73,0.00,,,0.00,WUHU21623XXSP,2013-11-27 14:04:00,
2013-11-27 08:08:00,13.3,6.2,30.26,NNW,337,15.8,22.4,73,0.00,,,0.00,WUHU21623XXSP,2013-11-27 14:08:00,
2013-11-27 08:13:00,13.3,5.9,30.26,NNW,336,14.4,23.0,72,0.00,,,0.00,WUHU21623XXSP,2013-11-27 14:13:00,
2013-11-27 08:18:00,13.6,6.3,30.26,NNW,341,15.0,20.6,72,0.00,,,0.00,WUHU21623XXSP,2013-11-27 14:18:00,
2013-11-27 08:23:00,13.8,6.5,30.26,NNW,331,14.2,22.6,72,0.00,,,0.00,WUHU21623XXSP,2013-11-27 14:23:00,
2013-11-27 08:28:00,14.2,6.8,30.27,NNW,335,12.7,15.7,72,0.00,,,0.00,WUHU21623XXSP,2013-11-27 14:28:00,
2013-11-27 08:33:00,14.5,7.1,30.27,NNW,335,15.4,21.7,72,0.00,,,0.00,WUHU21623XXSP,2013-11-27 14:33:00,
2013-11-27 08:38:00,14.7,7.0,30.27,NNW,335,14.6,20.6,71,0.00,,,0.00,WUHU21623XXSP,2013-11-27 14:38:00,
2013-11-27 08:43:00,15.1,7.3,30.27,NNW,329,14.9,21.7,71,0.00,,,0.00,WUHU21623XXSP,2013-11-27 14:43:00,
2013-11-27 08:48:00,15.4,7.7,30.27,NNW,331,14.3,21.5,71,0.00,,,0.00,WUHU21623XXSP,2013-11-27 14:48:00,
2013-11-27 08:53:00,15.6,7.8,30.27,NNW,337,14.6,23.3,71,0.00,,,0.00,WUHU21623XXSP,2013-11-27 14:53:00,
2013-11-27 08:59:00,16.0,7.9,30.27,NNW,345,13.8,20.8,70,0.00,,,0.00,WUHU21623XXSP,2013-11-27 14:59:00,
2013-11-27 09:04:00,16.3,8.2,30.27,NNW,341,14.2,22.6,70,0.00,,,0.00,WUHU21623XXSP,2013-11-27 15:04:00,
2013-11-27 09:10:00,16.5,8.1,30.27,NNW,340,14.6,19.5,69,0.00,,,0.00,WUHU21623XXSP,2013-11-27 15:10:00,
2013-11-27 09:15:00,16.9,8.4,30.27,NNW,339,14.1,22.4,69,0.00,,,0.00,WUHU21623XXSP,2013-11-27 15:15:00,
2013-11-27 09:20:00,17.2,8.8,30.27,NNW,338,15.8,23.9,69,0.00,,,0.00,WUHU21623XXSP,2013-11-27 15:20:00,
2013-11-27 09:25:00,17.4,8.6,30.27,NNW,340,12.5,19.5,68,0.00,,,0.00,WUHU21623XXSP,2013-11-27 15:25:00,
2013-11-27 09:30:00,17.8,9.0,30.27,NNW,342,11.4,18.6,68,0.00,,,0.00,WUHU21623XXSP,2013-11-27 15:30:00,
2013-11-27 09:35:00,18.1,9.3,30.27,NNW,343,13.5,19.2,68,0.00,,,0.00,WUHU21623XXSP,2013-11-27 15:35:00,
2013-11-27 09:40:00,18.3,9.5,30.27,NNW,346,13.0,18.3,68,0.00,,,0.00,WUHU21623XXSP,2013-11-27 15:40:00,
2013-11-27 09:45:00,18.5,9.3,30.27,NNW,346,13.3,19.9,67,0.00,,,0.00,WUHU21623XXSP,2013-11-27 15:45:00,
2013-11-27 09:57:00,19.0,9.8,30.27,NNW,342,13.5,20.6,67,0.00,,,0.00,WUHU21623XXSP,2013-11-27 15:57:00,
2013-11-27 10:02:00,19.2,9.6,30.27,NNW,343,14.0,23.7,66,0.00,,,0.00,WUHU21623XXSP,2013-11-27 16:02:00,
2013-11-27 10:04:00,19.2,9.8,30.27,NW,315,13.4,13.4,66,0.00,,,0.00,WUHU21623XXSP,2013-11-27 16:04:00,
2013-11-27 10:08:00,19.2,9.6,30.27,NNW,341,13.5,19.5,66,0.00,,,0.00,WUHU21623XXSP,2013-11-27 16:08:00,
2013-11-27 10:13:00,19.6,9.9,30.27,NNW,339,12.5,19.9,66,0.00,,,0.00,WUHU21623XXSP,2013-11-27 16:13:00,
2013-11-27 10:18:00,19.6,9.6,30.27,NNW,343,13.5,18.8,65,0.00,,,0.00,WUHU21623XXSP,2013-11-27 16:18:00,
2013-11-27 10:23:00,19.9,9.9,30.27,NNW,334,14.0,21.5,65,0.00,,,0.00,WUHU21623XXSP,2013-11-27 16:23:00,
2013-11-27 10:28:00,19.9,9.9,30.26,NNW,341,14.2,20.8,65,0.00,,,0.00,WUHU21623XXSP,2013-11-27 16:28:00,
2013-11-27 10:33:00,20.1,10.1,30.26,NNW,341,12.2,17.7,65,0.00,,,0.00,WUHU21623XXSP,2013-11-27 16:33:00,
2013-11-27 10:39:00,20.5,10.1,30.26,NNW,331,12.7,19.5,64,0.00,,,0.00,WUHU21623XXSP,2013-11-27 16:39:00,
2013-11-27 10:44:00,20.5,10.1,30.26,NNW,340,12.1,16.1,64,0.00,,,0.00,WUHU21623XXSP,2013-11-27 16:44:00,
2013-11-27 10:49:00,21.0,10.7,30.25,NNW,336,11.7,18.6,64,0.00,,,0.00,WUHU21623XXSP,2013-11-27 16:49:00,
2013-11-27 10:54:00,21.0,10.3,30.26,NNW,338,12.9,20.4,63,0.00,,,0.00,WUHU21623XXSP,2013-11-27 16:54:00,
2013-11-27 10:59:00,21.4,10.7,30.25,NNW,334,11.7,16.3,63,0.00,,,0.00,WUHU21623XXSP,2013-11-27 16:59:00,
2013-11-27 11:04:00,21.6,11.0,30.25,NNW,338,18.6,18.6,63,0.00,,,0.00,WUHU21623XXSP,2013-11-27 17:04:00,
2013-11-27 11:05:00,21.6,10.8,30.25,NNW,345,11.2,19.9,63,0.00,,,0.00,WUHU21623XXSP,2013-11-27 17:05:00,
2013-11-27 11:10:00,21.9,10.8,30.25,NW,324,10.5,19.0,62,0.00,,,0.00,WUHU21623XXSP,2013-11-27 17:10:00,
2013-11-27 11:23:00,22.1,11.0,30.25,NW,317,10.3,19.0,62,0.00,,,0.00,WUHU21623XXSP,2013-11-27 17:23:00,
2013-11-27 11:31:00,23.0,11.5,30.24,NNW,329,9.7,20.1,61,0.00,,,0.00,WUHU21623XXSP,2013-11-27 17:31:00,
2013-11-27 11:36:00,23.0,11.5,30.24,NNW,338,11.2,21.7,61,0.00,,,0.00,WUHU21623XXSP,2013-11-27 17:36:00,
2013-11-27 11:41:00,23.2,11.3,30.24,NNW,340,10.4,16.3,60,0.00,,,0.00,WUHU21623XXSP,2013-11-27 17:41:00,
2013-11-27 11:46:00,23.5,11.7,30.24,NNW,333,10.5,19.2,60,0.00,,,0.00,WUHU21623XXSP,2013-11-27 17:46:00,
2013-11-27 11:51:00,23.5,11.7,30.24,NNW,338,11.3,19.2,60,0.00,,,0.00,WUHU21623XXSP,2013-11-27 17:51:00,
2013-11-27 11:56:00,23.5,11.7,30.24,NNW,336,11.6,17.2,60,0.00,,,0.00,WUHU21623XXSP,2013-11-27 17:56:00,
2013-11-27 12:01:00,23.9,11.6,30.24,NNW,342,11.5,16.8,59,0.00,,,0.00,WUHU21623XXSP,2013-11-27 18:01:00,
2013-11-27 12:04:00,24.1,11.9,30.24,North,0,12.8,12.8,59,0.00,,,0.00,WUHU21623XXSP,2013-11-27 18:04:00,
2013-11-27 12:06:00,24.1,11.8,30.24,NNW,333,13.8,22.1,59,0.00,,,0.00,WUHU21623XXSP,2013-11-27 18:06:00,
2013-11-27 12:11:00,24.1,11.4,30.24,NNW,333,11.4,16.8,58,0.00,,,0.00,WUHU21623XXSP,2013-11-27 18:11:00,
2013-11-27 12:16:00,24.4,11.7,30.24,NNW,335,12.8,25.9,58,0.00,,,0.00,WUHU21623XXSP,2013-11-27 18:16:00,
2013-11-27 12:21:00,24.6,11.9,30.24,NNW,336,10.2,18.8,58,0.00,,,0.00,WUHU21623XXSP,2013-11-27 18:21:00,
2013-11-27 12:26:00,25.0,12.3,30.24,NNW,339,11.7,19.9,58,0.00,,,0.00,WUHU21623XXSP,2013-11-27 18:26:00,
2013-11-27 12:31:00,25.2,12.4,30.24,NNW,333,11.2,17.7,58,0.00,,,0.00,WUHU21623XXSP,2013-11-27 18:31:00,
2013-11-27 12:36:00,25.3,12.6,30.24,NNW,332,12.2,21.7,58,0.00,,,0.00,WUHU21623XXSP,2013-11-27 18:36:00,
2013-11-27 12:41:00,25.7,12.7,30.24,NNW,338,11.8,22.6,58,0.00,,,0.00,WUHU21623XXSP,2013-11-27 18:41:00,
2013-11-27 12:46:00,25.5,12.7,30.24,NNW,337,12.9,20.1,58,0.00,,,0.00,WUHU21623XXSP,2013-11-27 18:46:00,
2013-11-27 12:51:00,25.7,12.9,30.24,NNW,338,14.8,21.0,58,0.00,,,0.00,WUHU21623XXSP,2013-11-27 18:51:00,
2013-11-27 12:57:00,25.5,12.7,30.24,NNW,341,12.5,19.9,58,0.00,,,0.00,WUHU21623XXSP,2013-11-27 18:57:00,
2013-11-27 13:03:00,25.9,13.1,30.24,NNW,334,9.0,13.9,58,0.00,,,0.00,WUHU21623XXSP,2013-11-27 19:03:00,
2013-11-27 13:04:00,25.9,13.2,30.24,NNW,338,13.6,13.6,58,0.00,,,0.00,WUHU21623XXSP,2013-11-27 19:04:00,
2013-11-27 13:08:00,26.2,13.4,30.24,NNW,342,10.5,14.8,58,0.00,,,0.00,WUHU21623XXSP,2013-11-27 19:08:00,
2013-11-27 13:13:00,26.2,13.0,30.24,NNW,333,11.9,16.6,57,0.00,,,0.00,WUHU21623XXSP,2013-11-27 19:13:00,
2013-11-27 13:18:00,26.2,13.0,30.23,NNW,338,13.3,20.1,57,0.00,,,0.00,WUHU21623XXSP,2013-11-27 19:18:00,
2013-11-27 13:23:00,26.2,13.0,30.23,NNW,335,10.2,15.2,57,0.00,,,0.00,WUHU21623XXSP,2013-11-27 19:23:00,
2013-11-27 13:28:00,26.4,13.1,30.23,NNW,331,11.0,21.3,57,0.00,,,0.00,WUHU21623XXSP,2013-11-27 19:28:00,
2013-11-27 13:33:00,26.4,13.1,30.23,NNW,334,11.4,16.3,57,0.00,,,0.00,WUHU21623XXSP,2013-11-27 19:33:00,
2013-11-27 13:38:00,26.8,13.5,30.23,NNW,330,11.7,21.7,57,0.00,,,0.00,WUHU21623XXSP,2013-11-27 19:38:00,
2013-11-27 13:43:00,26.8,13.5,30.23,NW,321,8.4,15.0,57,0.00,,,0.00,WUHU21623XXSP,2013-11-27 19:43:00,
2013-11-27 13:48:00,27.0,13.7,30.23,NW,324,9.5,18.3,57,0.00,,,0.00,WUHU21623XXSP,2013-11-27 19:48:00,
2013-11-27 13:53:00,27.0,13.7,30.23,NNW,332,10.9,16.8,57,0.00,,,0.00,WUHU21623XXSP,2013-11-27 19:53:00,
2013-11-27 13:58:00,27.1,13.4,30.23,NNW,333,10.5,16.3,56,0.00,,,0.00,WUHU21623XXSP,2013-11-27 19:58:00,
2013-11-27 14:03:00,27.0,13.2,30.24,NNW,335,11.8,16.6,56,0.00,,,0.00,WUHU21623XXSP,2013-11-27 20:03:00,
2013-11-27 14:04:00,27.0,13.4,30.24,NNW,338,13.0,13.0,56,0.00,,,0.00,WUHU21623XXSP,2013-11-27 20:04:00,
2013-11-27 14:08:00,27.0,13.2,30.24,NNW,329,9.5,17.7,56,0.00,,,0.00,WUHU21623XXSP,2013-11-27 20:08:00,
2013-11-27 14:13:00,27.0,13.2,30.24,NNW,331,9.8,16.6,56,0.00,,,0.00,WUHU21623XXSP,2013-11-27 20:13:00,
2013-11-27 14:18:00,27.0,13.2,30.24,NNW,331,8.6,13.6,56,0.00,,,0.00,WUHU21623XXSP,2013-11-27 20:18:00,
2013-11-27 14:23:00,27.0,13.2,30.23,NNW,330,9.4,15.4,56,0.00,,,0.00,WUHU21623XXSP,2013-11-27 20:23:00,
2013-11-27 14:28:00,27.0,13.2,30.23,NW,319,6.8,11.0,56,0.00,,,0.00,WUHU21623XXSP,2013-11-27 20:28:00,
2013-11-27 14:33:00,27.0,13.2,30.24,NNW,333,8.7,13.0,56,0.00,,,0.00,WUHU21623XXSP,2013-11-27 20:33:00,
2013-11-27 14:38:00,27.0,13.2,30.24,NW,326,8.8,13.4,56,0.00,,,0.00,WUHU21623XXSP,2013-11-27 20:38:00,
2013-11-27 14:43:00,27.0,13.2,30.24,NNW,337,8.5,16.1,56,0.00,,,0.00,WUHU21623XXSP,2013-11-27 20:43:00,
2013-11-27 14:48:00,27.0,13.2,30.24,NW,320,7.0,16.8,56,0.00,,,0.00,WUHU21623XXSP,2013-11-27 20:48:00,
2013-11-27 14:53:00,27.0,13.2,30.24,NNW,331,8.9,16.1,56,0.00,,,0.00,WUHU21623XXSP,2013-11-27 20:53:00,
2013-11-27 14:58:00,27.0,13.2,30.23,NW,314,8.1,16.6,56,0.00,,,0.00,WUHU21623XXSP,2013-11-27 20:58:00,
2013-11-27 15:03:00,27.0,13.2,30.24,NW,325,8.8,14.5,56,0.00,,,0.00,WUHU21623XXSP,2013-11-27 21:03:00,
2013-11-27 15:04:00,27.0,13.4,30.24,NNW,338,9.8,9.8,56,0.00,,,0.00,WUHU21623XXSP,2013-11-27 21:04:00,
2013-11-27 15:08:00,26.8,13.1,30.24,NNW,330,8.6,12.8,56,0.00,,,0.00,WUHU21623XXSP,2013-11-27 21:08:00,
2013-11-27 15:13:00,26.6,12.9,30.24,NW,314,7.5,11.4,56,0.00,,,0.00,WUHU21623XXSP,2013-11-27 21:13:00,
2013-11-27 15:18:00,26.6,12.9,30.24,NW,306,7.8,11.2,56,0.00,,,0.00,WUHU21623XXSP,2013-11-27 21:18:00,
2013-11-27 15:23:00,26.6,12.9,30.24,WNW,301,6.5,11.0,56,0.00,,,0.00,WUHU21623XXSP,2013-11-27 21:23:00,
2013-11-27 15:28:00,26.6,12.9,30.24,NW,304,7.2,11.9,56,0.00,,,0.00,WUHU21623XXSP,2013-11-27 21:28:00,
2013-11-27 15:33:00,26.4,12.7,30.24,WNW,296,7.0,9.8,56,0.00,,,0.00,WUHU21623XXSP,2013-11-27 21:33:00,
2013-11-27 15:38:00,26.2,12.7,30.24,NW,312,6.0,9.2,56,0.00,,,0.00,WUHU21623XXSP,2013-11-27 21:38:00,
2013-11-27 15:43:00,26.2,12.6,30.24,WNW,295,6.9,8.7,56,0.00,,,0.00,WUHU21623XXSP,2013-11-27 21:43:00,
2013-11-27 15:48:00,26.1,12.8,30.24,WNW,291,5.1,8.3,57,0.00,,,0.00,WUHU21623XXSP,2013-11-27 21:48:00,
2013-11-27 15:53:00,25.9,12.6,30.24,WNW,295,5.8,8.7,57,0.00,,,0.00,WUHU21623XXSP,2013-11-27 21:53:00,
2013-11-27 15:58:00,25.7,12.5,30.24,WNW,296,6.2,9.6,57,0.00,,,0.00,WUHU21623XXSP,2013-11-27 21:58:00,
2013-11-27 16:03:00,25.5,12.3,30.24,WNW,298,5.9,9.6,57,0.00,,,0.00,WUHU21623XXSP,2013-11-27 22:03:00,
2013-11-27 16:04:00,25.5,12.4,30.24,WNW,293,5.6,5.6,57,0.00,,,0.00,WUHU21623XXSP,2013-11-27 22:04:00,
2013-11-27 16:08:00,25.3,12.2,30.25,WNW,300,5.1,7.4,57,0.00,,,0.00,WUHU21623XXSP,2013-11-27 22:08:00,
2013-11-27 16:13:00,25.0,11.8,30.24,WNW,302,4.2,7.6,57,0.00,,,0.00,WUHU21623XXSP,2013-11-27 22:13:00,
2013-11-27 16:18:00,24.6,11.5,30.25,WNW,300,4.3,8.5,57,0.00,,,0.00,WUHU21623XXSP,2013-11-27 22:18:00,
2013-11-27 16:23:00,24.4,11.7,30.25,WNW,300,3.0,5.1,58,0.00,,,0.00,WUHU21623XXSP,2013-11-27 22:23:00,
2013-11-27 16:28:00,23.9,11.2,30.26,WNW,297,2.6,4.9,58,0.00,,,0.00,WUHU21623XXSP,2013-11-27 22:28:00,
2013-11-27 16:33:00,23.4,11.1,30.25,NW,306,2.5,3.8,59,0.00,,,0.00,WUHU21623XXSP,2013-11-27 22:33:00,
2013-11-27 16:38:00,22.8,10.5,30.26,WNW,298,2.4,4.5,59,0.00,,,0.00,WUHU21623XXSP,2013-11-27 22:38:00,
2013-11-27 16:43:00,22.1,10.5,30.26,WNW,292,1.1,3.1,60,0.00,,,0.00,WUHU21623XXSP,2013-11-27 22:43:00,
2013-11-27 16:48:00,21.7,10.0,30.25,WNW,293,1.3,4.5,60,0.00,,,0.00,WUHU21623XXSP,2013-11-27 22:48:00,
2013-11-27 16:53:00,21.0,9.3,30.26,WNW,292,0.8,3.8,60,0.00,,,0.00,WUHU21623XXSP,2013-11-27 22:53:00,
2013-11-27 16:58:00,20.8,9.5,30.25,WNW,295,2.6,4.7,61,0.00,,,0.00,WUHU21623XXSP,2013-11-27 22:58:00,
2013-11-27 17:03:00,20.5,9.5,30.25,WNW,294,2.4,5.8,62,0.00,,,0.00,WUHU21623XXSP,2013-11-27 23:03:00,
2013-11-27 17:04:00,20.5,9.6,30.25,WNW,293,0.0,0.0,62,0.00,,,0.00,WUHU21623XXSP,2013-11-27 23:04:00,
2013-11-27 17:08:00,20.1,9.1,30.26,West,279,0.6,2.7,62,0.00,,,0.00,WUHU21623XXSP,2013-11-27 23:08:00,
2013-11-27 17:13:00,19.6,8.6,30.26,WNW,292,1.3,2.9,62,0.00,,,0.00,WUHU21623XXSP,2013-11-27 23:13:00,
2013-11-27 17:18:00,19.4,8.7,30.26,WNW,292,0.7,3.1,63,0.00,,,0.00,WUHU21623XXSP,2013-11-27 23:18:00,
2013-11-27 17:23:00,19.0,8.7,30.26,West,281,0.4,1.8,64,0.00,,,0.00,WUHU21623XXSP,2013-11-27 23:23:00,
2013-11-27 17:28:00,18.7,8.4,30.26,West,270,1.2,2.9,64,0.00,,,0.00,WUHU21623XXSP,2013-11-27 23:28:00,
2013-11-27 17:33:00,18.5,8.3,30.26,West,281,0.2,2.0,64,0.00,,,0.00,WUHU21623XXSP,2013-11-27 23:33:00,
2013-11-27 17:38:00,18.3,8.1,30.27,WNW,292,2.3,5.4,64,0.00,,,0.00,WUHU21623XXSP,2013-11-27 23:38:00,
2013-11-27 17:43:00,18.1,8.3,30.27,WNW,292,2.1,4.5,65,0.00,,,0.00,WUHU21623XXSP,2013-11-27 23:43:00,
2013-11-27 17:48:00,17.8,8.0,30.27,WNW,292,0.8,2.2,65,0.00,,,0.00,WUHU21623XXSP,2013-11-27 23:48:00,
2013-11-27 17:53:00,17.4,8.0,30.27,WNW,292,0.3,3.1,66,0.00,,,0.00,WUHU21623XXSP,2013-11-27 23:53:00,
2013-11-27 17:58:00,17.2,7.8,30.27,WNW,298,0.4,1.8,66,0.00,,,0.00,WUHU21623XXSP,2013-11-27 23:58:00,
2013-11-27 18:03:00,17.2,7.8,30.27,WNW,292,0.4,2.7,66,0.00,,,0.00,WUHU21623XXSP,2013-11-28 00:03:00,
2013-11-27 18:04:00,17.2,7.8,30.27,WNW,293,2.7,2.7,66,0.00,,,0.00,WUHU21623XXSP,2013-11-28 00:04:00,
2013-11-27 18:08:00,16.9,7.8,30.27,WNW,298,1.2,5.1,67,0.00,,,0.00,WUHU21623XXSP,2013-11-28 00:08:00,
2013-11-27 18:13:00,16.7,7.6,30.27,NW,312,1.2,3.4,67,0.00,,,0.00,WUHU21623XXSP,2013-11-28 00:13:00,
2013-11-27 18:18:00,16.7,7.6,30.27,WNW,292,0.0,1.1,67,0.00,,,0.00,WUHU21623XXSP,2013-11-28 00:18:00,
2013-11-27 18:23:00,16.5,7.4,30.27,North,0,0.0,0.0,67,0.00,,,0.00,WUHU21623XXSP,2013-11-28 00:23:00,
2013-11-27 18:28:00,16.3,7.2,30.27,North,0,0.0,0.0,67,0.00,,,0.00,WUHU21623XXSP,2013-11-28 00:28:00,
2013-11-27 18:33:00,16.2,7.4,30.27,WNW,292,0.6,1.8,68,0.00,,,0.00,WUHU21623XXSP,2013-11-28 00:33:00,
2013-11-27 19:04:00,15.6,7.3,30.27,West,270,1.3,1.3,69,0.00,,,0.00,WUHU21623XXSP,2013-11-28 01:04:00,
2013-11-27 20:04:00,15.8,8.1,30.27,North,0,0.0,0.0,71,0.00,,,0.00,WUHU21623XXSP,2013-11-28 02:04:00,
2013-11-27 21:04:00,17.4,10.0,30.27,SW,225,4.7,4.7,72,0.00,,,0.00,WUHU21623XXSP,2013-11-28 03:04:00,
2013-11-27 22:04:00,18.1,10.9,30.28,North,0,0.0,0.0,73,0.00,,,0.00,WUHU21623XXSP,2013-11-28 04:04:00,
2013-11-27 23:04:00,16.5,9.7,30.25,South,180,0.9,0.9,74,0.00,,,0.00,WUHU21623XXSP,2013-11-28 05:04:00,